Time;durP1;ratioP1;P1;durP2;ratioP2;P2;SDS_P1;SDS_P2;PMS_P1;PMS_P2;Temp;Humidity;BMP_temperature;BMP_pressure;BME280_temperature;BME280_humidity;BME280_pressure;Samples;Min_cycle;Max_cycle;Signal;HPM_P1;HPM_P2
2020/12/20 00:01:48;;;;;;;7.85;2.55;;;11.10;99.90;;;;;;4148079;28;20030;-81
2020/12/20 00:03:48;;;;;;;4.70;2.10;;;11.10;99.90;;;;;;4156300;28;20700;-80
2020/12/20 00:05:49;;;;;;;3.35;1.88;;;11.10;99.90;;;;;;4161430;28;20026;-80
2020/12/20 00:07:51;;;;;;;5.15;2.17;;;11.00;99.90;;;;;;4161265;28;20691;-80
2020/12/20 00:09:52;;;;;;;2.30;1.90;;;11.00;99.90;;;;;;4168079;28;20029;-81
2020/12/20 00:11:53;;;;;;;3.20;2.13;;;11.00;99.90;;;;;;4159773;28;20115;-81
2020/12/20 00:13:54;;;;;;;7.05;2.55;;;11.00;99.90;;;;;;4168517;28;20473;-80
2020/12/20 00:15:54;;;;;;;2.58;1.95;;;11.00;99.90;;;;;;4147506;28;20042;-81
2020/12/20 00:17:55;;;;;;;7.18;2.83;;;10.90;99.90;;;;;;4165556;28;20106;-81
2020/12/20 00:19:56;;;;;;;2.80;2.35;;;10.90;99.90;;;;;;4160135;28;20045;-81
2020/12/20 00:22:02;;;;;;;4.07;2.30;;;10.90;99.90;;;;;;4163647;28;20032;-81
2020/12/20 00:24:03;;;;;;;3.78;2.30;;;10.90;99.90;;;;;;4159913;28;20034;-81
2020/12/20 00:26:06;;;;;;;5.50;2.50;;;10.80;99.90;;;;;;4160313;28;20043;-80
2020/12/20 00:28:13;;;;;;;;;;;10.80;99.90;;;;;;4146117;28;20504;-80
2020/12/20 00:30:14;;;;;;;4.72;2.67;;;10.80;99.90;;;;;;4159130;28;20384;-80
2020/12/20 00:32:14;;;;;;;4.40;2.33;;;10.80;99.90;;;;;;4160290;28;20033;-81
2020/12/20 00:34:15;;;;;;;5.13;2.40;;;10.80;99.90;;;;;;4162385;28;20056;-81
2020/12/20 00:36:25;;;;;;;5.30;2.90;;;10.70;99.90;;;;;;4159637;28;20030;-81
2020/12/20 00:38:25;;;;;;;9.32;3.13;;;10.70;99.90;;;;;;4174349;28;20403;-80
2020/12/20 00:40:26;;;;;;;5.35;2.92;;;10.70;99.90;;;;;;4156844;28;20041;-81
2020/12/20 00:42:27;;;;;;;4.32;2.90;;;10.70;99.90;;;;;;4162110;28;20033;-80
2020/12/20 00:44:28;;;;;;;4.88;2.97;;;10.60;99.90;;;;;;4175794;28;20590;-80
2020/12/20 00:46:28;;;;;;;4.95;3.00;;;10.60;99.90;;;;;;4159813;28;20417;-80
2020/12/20 00:48:29;;;;;;;5.25;3.25;;;10.60;99.90;;;;;;4152282;28;20030;-81
2020/12/20 00:50:30;;;;;;;5.03;3.30;;;10.60;99.90;;;;;;4161830;28;20045;-81
2020/12/20 00:52:30;;;;;;;6.32;3.13;;;10.70;99.90;;;;;;4143463;28;20061;-81
2020/12/20 00:54:32;;;;;;;7.07;3.33;;;10.70;99.90;;;;;;4153488;28;20038;-81
2020/12/20 00:56:32;;;;;;;7.57;3.65;;;10.60;99.90;;;;;;4158611;28;20466;-81
2020/12/20 00:58:49;;;;;;;7.72;3.28;;;10.60;99.90;;;;;;4163071;28;20037;-81
2020/12/20 01:00:50;;;;;;;6.82;3.33;;;10.60;99.90;;;;;;4158659;28;20044;-80
2020/12/20 01:02:51;;;;;;;6.07;3.30;;;10.60;99.90;;;;;;4143733;28;20092;-80
2020/12/20 01:04:57;;;;;;;6.55;3.50;;;10.60;99.90;;;;;;4176166;28;20509;-80
2020/12/20 01:06:58;;;;;;;7.10;3.70;;;10.60;99.90;;;;;;4168211;28;20380;-81
2020/12/20 01:09:00;;;;;;;8.68;4.22;;;10.60;99.90;;;;;;4157378;28;20037;-81
2020/12/20 01:11:01;;;;;;;4.85;3.58;;;10.50;99.90;;;;;;4174281;28;20033;-80
2020/12/20 01:13:01;;;;;;;5.07;3.63;;;10.50;99.90;;;;;;4160316;28;20397;-80
2020/12/20 01:15:03;;;;;;;5.30;3.67;;;10.60;99.90;;;;;;4152237;28;20026;-81
2020/12/20 01:17:04;;;;;;;5.57;3.65;;;10.50;99.90;;;;;;4153051;28;20151;-81
2020/12/20 01:19:04;;;;;;;7.70;4.35;;;10.50;99.90;;;;;;4163080;28;20029;-80
2020/12/20 01:21:05;;;;;;;5.53;3.80;;;10.50;99.90;;;;;;4176211;28;24601;-80
2020/12/20 01:23:06;;;;;;;5.88;3.53;;;10.50;99.90;;;;;;4162060;28;20030;-80
2020/12/20 01:25:07;;;;;;;10.88;4.63;;;10.50;99.90;;;;;;4177162;28;20146;-81
2020/12/20 01:27:08;;;;;;;9.18;4.10;;;10.40;99.90;;;;;;4168756;28;20025;-81
2020/12/20 01:29:08;;;;;;;5.30;3.75;;;10.50;99.90;;;;;;4162377;28;20092;-81
2020/12/20 01:31:14;;;;;;;8.32;3.72;;;10.40;99.90;;;;;;4177144;28;20112;-80
2020/12/20 01:33:15;;;;;;;7.53;4.25;;;10.50;99.90;;;;;;4176409;28;20112;-80
2020/12/20 01:35:15;;;;;;;6.50;3.88;;;10.40;99.90;;;;;;4154016;28;20029;-80
2020/12/20 01:37:17;;;;;;;6.80;3.88;;;10.40;99.90;;;;;;4150016;28;20137;-80
2020/12/20 01:39:17;;;;;;;9.13;4.95;;;10.40;99.90;;;;;;4186745;28;20036;-80
2020/12/20 01:41:18;;;;;;;5.78;3.75;;;10.40;99.90;;;;;;4161386;28;20033;-80
2020/12/20 01:43:19;;;;;;;11.63;4.32;;;10.40;99.90;;;;;;4170791;28;20034;-81
2020/12/20 01:45:20;;;;;;;7.50;4.55;;;10.40;99.90;;;;;;4162255;28;20037;-81
2020/12/20 01:47:21;;;;;;;6.95;4.13;;;10.30;99.90;;;;;;4179256;28;20036;-80
2020/12/20 01:49:21;;;;;;;5.55;3.85;;;10.30;99.90;;;;;;4177172;28;20392;-80
2020/12/20 01:51:22;;;;;;;9.10;4.75;;;10.30;99.90;;;;;;4154466;28;20040;-80
2020/12/20 01:53:23;;;;;;;6.28;4.15;;;10.30;99.90;;;;;;4146448;28;20464;-80
2020/12/20 01:55:26;;;;;;;6.25;3.85;;;10.30;99.90;;;;;;4170732;28;20030;-80
2020/12/20 01:57:27;;;;;;;5.65;3.53;;;10.30;99.90;;;;;;4146299;28;20058;-80
2020/12/20 01:59:27;;;;;;;6.90;3.85;;;10.30;99.90;;;;;;4152405;28;20494;-81
2020/12/20 02:01:28;;;;;;;7.15;4.22;;;10.30;99.90;;;;;;4161997;28;20022;-81
2020/12/20 02:03:30;;;;;;;8.38;3.47;;;10.30;99.90;;;;;;4144571;28;20052;-81
2020/12/20 02:05:36;;;;;;;7.70;4.15;;;10.40;99.90;;;;;;4173429;28;20492;-80
2020/12/20 02:07:37;;;;;;;6.22;3.72;;;10.40;99.90;;;;;;4171394;28;20158;-80
2020/12/20 02:09:37;;;;;;;5.88;3.78;;;10.40;99.90;;;;;;4164038;28;20072;-81
2020/12/20 02:11:38;;;;;;;6.20;3.28;;;10.40;99.90;;;;;;4156098;28;20029;-81
2020/12/20 02:13:41;;;;;;;5.85;3.97;;;10.30;99.90;;;;;;4168445;28;20045;-81
2020/12/20 02:15:41;;;;;;;9.38;4.07;;;10.30;99.90;;;;;;4171522;28;20034;-80
2020/12/20 02:17:42;;;;;;;7.15;3.90;;;10.30;99.90;;;;;;4155267;28;20041;-82
2020/12/20 02:19:42;;;;;;;5.78;3.63;;;10.30;99.90;;;;;;4162197;28;20034;-81
2020/12/20 02:21:43;;;;;;;7.45;3.97;;;10.30;99.90;;;;;;4145983;28;20556;-81
2020/12/20 02:23:47;;;;;;;5.53;3.47;;;10.30;99.90;;;;;;4162421;28;20033;-80
2020/12/20 02:25:57;;;;;;;6.57;3.40;;;10.30;99.90;;;;;;4171183;28;20049;-81
2020/12/20 02:27:57;;;;;;;6.47;4.10;;;10.30;99.90;;;;;;4172277;28;20508;-81
2020/12/20 02:29:58;;;;;;;6.80;3.47;;;10.30;99.90;;;;;;4159887;28;20120;-81
2020/12/20 02:31:58;;;;;;;7.25;3.85;;;10.30;99.90;;;;;;4146422;28;20049;-80
2020/12/20 02:34:01;;;;;;;6.10;3.78;;;10.30;99.90;;;;;;4170500;28;20483;-81
2020/12/20 02:36:02;;;;;;;6.78;3.85;;;10.30;99.90;;;;;;4165258;28;20036;-80
2020/12/20 02:38:03;;;;;;;6.35;3.55;;;10.30;99.90;;;;;;4159664;28;20097;-81
2020/12/20 02:40:04;;;;;;;7.20;3.88;;;10.30;99.90;;;;;;4161300;28;20039;-81
2020/12/20 02:42:05;;;;;;;5.45;3.47;;;10.30;99.90;;;;;;4176997;28;20108;-80
2020/12/20 02:44:05;;;;;;;6.50;3.55;;;10.30;99.90;;;;;;4147190;28;20112;-80
2020/12/20 02:46:06;;;;;;;7.78;4.30;;;10.30;99.90;;;;;;4150956;28;20049;-80
2020/12/20 02:48:06;;;;;;;8.10;3.88;;;10.30;99.90;;;;;;4147308;28;20057;-80
2020/12/20 02:50:07;;;;;;;7.95;3.55;;;10.30;99.90;;;;;;4166077;28;20053;-80
2020/12/20 02:52:07;;;;;;;6.53;4.10;;;10.30;99.90;;;;;;4172528;28;20624;-80
2020/12/20 02:54:08;;;;;;;7.65;4.35;;;10.30;99.90;;;;;;4159276;28;20469;-80
2020/12/20 02:56:09;;;;;;;7.78;3.38;;;10.30;99.90;;;;;;4160935;28;20524;-80
2020/12/20 02:58:10;;;;;;;6.10;3.88;;;10.30;99.90;;;;;;4142604;28;20030;-80
2020/12/20 03:00:10;;;;;;;7.40;4.40;;;10.20;99.90;;;;;;4158858;28;20482;-81
2020/12/20 03:02:11;;;;;;;5.72;3.60;;;10.30;99.90;;;;;;4151231;28;20037;-81
2020/12/20 03:04:11;;;;;;;6.68;4.07;;;10.30;99.90;;;;;;4142028;28;20508;-81
2020/12/20 03:06:12;;;;;;;9.35;4.70;;;10.30;99.90;;;;;;4168006;28;20038;-81
2020/12/20 03:08:12;;;;;;;5.55;3.95;;;10.30;99.90;;;;;;4165966;28;20036;-80
2020/12/20 03:10:13;;;;;;;6.50;3.53;;;10.30;99.90;;;;;;4143803;28;20389;-80
2020/12/20 03:12:14;;;;;;;7.28;3.88;;;10.30;99.90;;;;;;4159491;28;20053;-80
2020/12/20 03:14:14;;;;;;;6.93;3.60;;;10.30;99.90;;;;;;4161260;28;20033;-80
2020/12/20 03:16:15;;;;;;;6.35;4.30;;;10.30;99.90;;;;;;4162496;28;20115;-80
2020/12/20 03:18:16;;;;;;;5.65;3.42;;;10.30;99.90;;;;;;4161053;28;20033;-80
2020/12/20 03:20:16;;;;;;;7.00;3.42;;;10.30;99.90;;;;;;4160961;28;20033;-81
2020/12/20 03:22:17;;;;;;;6.18;3.78;;;10.30;99.90;;;;;;4160428;28;20037;-80
2020/12/20 03:24:18;;;;;;;6.22;4.00;;;10.30;99.90;;;;;;4169840;28;20036;-81
2020/12/20 03:26:18;;;;;;;8.43;4.07;;;10.30;99.90;;;;;;4160553;28;20034;-81
2020/12/20 03:28:19;;;;;;;7.30;4.10;;;10.30;99.90;;;;;;4161936;28;20042;-81
2020/12/20 03:30:27;;;;;;;6.38;3.47;;;10.30;99.90;;;;;;4160586;28;20130;-81
2020/12/20 03:32:27;;;;;;;8.05;3.50;;;10.30;99.90;;;;;;4160359;28;20040;-80
2020/12/20 03:34:28;;;;;;;6.57;3.88;;;10.30;99.90;;;;;;4161089;28;20029;-80
2020/12/20 03:36:29;;;;;;;8.82;3.88;;;10.30;99.90;;;;;;4172170;28;20484;-80
2020/12/20 03:38:29;;;;;;;4.90;3.22;;;10.30;99.90;;;;;;4140383;28;20058;-80
2020/12/20 03:40:30;;;;;;;7.70;3.80;;;10.30;99.90;;;;;;4143168;28;20026;-80
2020/12/20 03:42:31;;;;;;;6.57;3.83;;;10.30;99.90;;;;;;4168290;28;20075;-80
2020/12/20 03:44:31;;;;;;;8.00;3.90;;;10.30;99.90;;;;;;4145859;28;20474;-81
2020/12/20 03:46:32;;;;;;;6.07;3.63;;;10.30;99.90;;;;;;4169491;28;20466;-81
2020/12/20 03:48:32;;;;;;;7.53;4.50;;;10.30;99.90;;;;;;4160362;28;20132;-81
2020/12/20 03:50:34;;;;;;;7.65;4.43;;;10.30;99.90;;;;;;4160250;28;20029;-80
2020/12/20 03:52:35;;;;;;;5.05;3.85;;;10.30;99.90;;;;;;4162457;28;20084;-80
2020/12/20 03:54:35;;;;;;;5.57;3.80;;;10.30;99.90;;;;;;4168598;28;20037;-80
2020/12/20 03:56:36;;;;;;;6.55;4.38;;;10.20;99.90;;;;;;4162068;28;20080;-80
2020/12/20 03:58:36;;;;;;;5.60;3.95;;;10.20;99.90;;;;;;4153068;28;20037;-80
2020/12/20 04:00:37;;;;;;;6.15;3.83;;;10.20;99.90;;;;;;4162323;28;20110;-80
2020/12/20 04:02:45;;;;;;;6.80;4.15;;;10.20;99.90;;;;;;4178111;28;20040;-80
2020/12/20 04:04:46;;;;;;;6.65;4.00;;;10.30;99.90;;;;;;4162951;28;20505;-81
2020/12/20 04:06:46;;;;;;;6.53;4.15;;;10.30;99.90;;;;;;4162872;28;20031;-80
2020/12/20 04:08:47;;;;;;;5.95;4.22;;;10.20;99.90;;;;;;4163243;28;20331;-81
2020/12/20 04:10:48;;;;;;;6.55;4.03;;;10.20;99.90;;;;;;4143067;28;20026;-81
2020/12/20 04:12:48;;;;;;;9.07;5.10;;;10.20;99.90;;;;;;4171287;28;20033;-81
2020/12/20 04:14:49;;;;;;;5.25;4.20;;;10.20;99.90;;;;;;4167729;28;20060;-81
2020/12/20 04:16:50;;;;;;;6.18;3.83;;;10.30;99.90;;;;;;4160161;28;20088;-81
2020/12/20 04:18:50;;;;;;;7.95;4.22;;;10.30;99.90;;;;;;4183698;28;20118;-81
2020/12/20 04:20:52;;;;;;;7.75;4.40;;;10.30;99.90;;;;;;4142839;28;20026;-81
2020/12/20 04:22:52;;;;;;;6.93;4.50;;;10.20;99.90;;;;;;4160183;28;20030;-80
2020/12/20 04:24:53;;;;;;;7.10;4.15;;;10.20;99.90;;;;;;4159919;28;20034;-80
2020/12/20 04:26:53;;;;;;;10.18;4.55;;;10.30;99.90;;;;;;4158717;28;20064;-80
2020/12/20 04:28:54;;;;;;;8.60;4.45;;;10.30;99.90;;;;;;4146299;28;20048;-80
2020/12/20 04:30:55;;;;;;;7.68;4.78;;;10.30;99.90;;;;;;4159448;28;20477;-80
2020/12/20 04:32:55;;;;;;;6.22;4.07;;;10.30;99.90;;;;;;4158219;28;20072;-80
2020/12/20 04:34:56;;;;;;;7.53;3.97;;;10.30;99.90;;;;;;4165099;28;20029;-80
2020/12/20 04:36:56;;;;;;;6.00;4.00;;;10.30;99.90;;;;;;4154135;28;20026;-80
2020/12/20 04:38:57;;;;;;;6.88;4.93;;;10.30;99.90;;;;;;4171426;28;20053;-80
2020/12/20 04:40:58;;;;;;;9.73;4.57;;;10.30;99.90;;;;;;4144790;28;20100;-81
2020/12/20 04:43:04;;;;;;;7.00;4.72;;;10.30;99.90;;;;;;4159446;28;20032;-81
2020/12/20 04:45:05;;;;;;;6.32;4.25;;;10.30;99.90;;;;;;4143568;28;20030;-80
2020/12/20 04:47:06;;;;;;;7.85;4.65;;;10.30;99.90;;;;;;4143058;28;20557;-81
2020/12/20 04:49:08;;;;;;;6.00;4.53;;;10.30;99.90;;;;;;4165721;28;20029;-81
2020/12/20 04:51:09;;;;;;;7.80;4.57;;;10.30;99.90;;;;;;4157964;28;20080;-81
2020/12/20 04:53:11;;;;;;;9.85;5.03;;;10.30;99.90;;;;;;4160427;28;20026;-80
2020/12/20 04:55:14;;;;;;;8.57;4.07;;;10.30;99.90;;;;;;4184953;28;20056;-81
2020/12/20 04:57:14;;;;;;;;;;;10.30;99.90;;;;;;4162773;28;20116;-81
2020/12/20 04:59:15;;;;;;;7.65;4.05;;;10.30;99.90;;;;;;4164764;28;19913;-81
2020/12/20 05:01:16;;;;;;;6.40;4.65;;;10.30;99.90;;;;;;4163530;28;20041;-81
2020/12/20 05:03:16;;;;;;;7.78;3.97;;;10.30;99.90;;;;;;4146095;28;20025;-81
2020/12/20 05:05:17;;;;;;;9.88;5.50;;;10.30;99.90;;;;;;4162547;28;20038;-81
2020/12/20 05:07:18;;;;;;;8.98;4.38;;;10.30;99.90;;;;;;4173353;28;20030;-81
2020/12/20 05:09:19;;;;;;;8.05;4.55;;;10.20;99.90;;;;;;4148352;28;20099;-81
2020/12/20 05:11:41;;;;;;;6.40;4.10;;;10.20;99.90;;;;;;4161741;28;20037;-81
2020/12/20 05:13:42;;;;;;;9.57;5.25;;;10.20;99.90;;;;;;4143315;28;20057;-81
2020/12/20 05:15:43;;;;;;;6.80;4.65;;;10.20;99.90;;;;;;4169645;28;20103;-81
2020/12/20 05:17:43;;;;;;;7.82;4.15;;;10.30;99.90;;;;;;4161878;28;20104;-80
2020/12/20 05:19:45;;;;;;;10.52;4.15;;;10.30;99.90;;;;;;4167011;28;20037;-80
2020/12/20 05:21:47;;;;;;;5.47;4.28;;;10.30;99.90;;;;;;4160430;28;20034;-80
2020/12/20 05:23:47;;;;;;;7.63;4.60;;;10.30;99.90;;;;;;4162306;28;20242;-81
2020/12/20 05:25:48;;;;;;;5.68;3.78;;;10.30;99.90;;;;;;4155278;28;20046;-80
2020/12/20 05:27:48;;;;;;;6.55;4.20;;;10.30;99.90;;;;;;4163256;28;20037;-82
2020/12/20 05:29:52;;;;;;;5.15;3.50;;;10.30;99.90;;;;;;4164593;28;20068;-80
2020/12/20 05:31:53;;;;;;;6.20;3.88;;;10.30;99.90;;;;;;4161911;28;20106;-80
2020/12/20 05:33:57;;;;;;;5.07;3.58;;;10.40;99.90;;;;;;4164115;28;20091;-80
2020/12/20 05:36:00;;;;;;;7.68;4.05;;;10.40;99.90;;;;;;4161826;28;20516;-81
2020/12/20 05:38:02;;;;;;;7.77;4.63;;;10.40;99.90;;;;;;4157236;28;20053;-81
2020/12/20 05:40:04;;;;;;;;;;;10.40;99.90;;;;;;4165244;28;20029;-80
2020/12/20 05:42:06;;;;;;;6.35;3.67;;;10.40;99.90;;;;;;4161006;28;19955;-80
2020/12/20 05:44:21;;;;;;;7.07;3.95;;;10.40;99.90;;;;;;4152176;28;20495;-81
2020/12/20 05:46:28;;;;;;;8.40;3.92;;;10.40;99.90;;;;;;4154614;28;20052;-81
2020/12/20 05:48:31;;;;;;;7.07;4.05;;;10.40;99.90;;;;;;4154218;28;20033;-81
2020/12/20 05:50:32;;;;;;;7.40;4.07;;;10.40;99.90;;;;;;4169672;28;20025;-81
2020/12/20 05:52:33;;;;;;;6.47;3.80;;;10.40;99.90;;;;;;4161363;28;20088;-81
2020/12/20 05:54:38;;;;;;;10.13;4.63;;;10.40;99.90;;;;;;4162113;28;20096;-80
2020/12/20 05:56:42;;;;;;;8.18;4.95;;;10.30;99.90;;;;;;4162260;28;20033;-80
2020/12/20 05:58:42;;;;;;;6.97;4.78;;;10.30;99.90;;;;;;4169586;28;20057;-80
2020/12/20 06:00:45;;;;;;;8.68;4.78;;;10.30;99.90;;;;;;4173435;28;20029;-80
2020/12/20 06:02:46;;;;;;;6.40;4.03;;;10.30;99.90;;;;;;4144543;28;20120;-80
2020/12/20 06:04:48;;;;;;;7.43;4.40;;;10.30;99.90;;;;;;4145566;28;20193;-81
2020/12/20 06:06:54;;;;;;;8.27;4.20;;;10.30;99.90;;;;;;4148645;28;20108;-81
2020/12/20 06:08:59;;;;;;;7.72;4.22;;;10.30;99.90;;;;;;4160059;28;21762;-81
2020/12/20 06:11:02;;;;;;;8.98;3.75;;;10.30;99.90;;;;;;4168689;28;20029;-81
2020/12/20 06:13:05;;;;;;;7.63;4.38;;;10.30;99.90;;;;;;4161181;28;20037;-81
2020/12/20 06:15:11;;;;;;;8.40;4.20;;;10.30;99.90;;;;;;4176194;28;20052;-81
2020/12/20 06:17:21;;;;;;;7.30;3.88;;;10.30;99.90;;;;;;4143330;28;20521;-81
2020/12/20 06:19:25;;;;;;;5.63;3.50;;;10.30;99.90;;;;;;4149508;28;20063;-81
2020/12/20 06:21:29;;;;;;;6.55;3.85;;;10.30;99.90;;;;;;4168766;28;20111;-81
2020/12/20 06:23:33;;;;;;;5.30;3.63;;;10.40;99.90;;;;;;4153601;28;20029;-81
2020/12/20 06:25:43;;;;;;;6.03;3.72;;;10.30;99.90;;;;;;4163410;28;20026;-81
2020/12/20 06:27:48;;;;;;;7.93;4.70;;;10.30;99.90;;;;;;4163026;28;20381;-81
2020/12/20 06:30:04;;;;;;;6.75;4.30;;;10.40;99.90;;;;;;4161141;28;20112;-81
2020/12/20 06:32:06;;;;;;;8.82;4.25;;;10.30;99.90;;;;;;4167127;28;20392;-81
2020/12/20 06:34:14;;;;;;;10.75;4.50;;;10.30;99.90;;;;;;4150256;28;20026;-81
2020/12/20 06:36:16;;;;;;;6.25;4.07;;;10.30;99.90;;;;;;4177793;28;20033;-81
2020/12/20 06:38:24;;;;;;;6.07;4.13;;;10.30;99.90;;;;;;4127293;28;20031;-81
2020/12/20 06:40:34;;;;;;;6.20;3.78;;;10.30;99.90;;;;;;4121609;28;20033;-81
2020/12/20 06:42:41;;;;;;;7.63;4.40;;;10.30;99.90;;;;;;4143844;28;20049;-81
2020/12/20 06:44:42;;;;;;;6.80;3.75;;;10.30;99.90;;;;;;4165613;28;20535;-81
2020/12/20 06:46:43;;;;;;;7.78;4.28;;;10.20;99.90;;;;;;4163861;28;20102;-81
2020/12/20 06:48:49;;;;;;;7.45;4.45;;;10.30;99.90;;;;;;4143689;28;20513;-82
2020/12/20 06:50:53;;;;;;;6.57;4.22;;;10.30;99.90;;;;;;4153057;28;20033;-81
2020/12/20 06:52:54;;;;;;;9.80;4.75;;;10.20;99.90;;;;;;4168194;28;20037;-81
2020/12/20 06:55:00;;;;;;;5.80;3.97;;;10.20;99.90;;;;;;4166284;28;20040;-81
2020/12/20 06:57:10;;;;;;;6.63;3.95;;;10.20;99.90;;;;;;4160848;28;20026;-81
2020/12/20 06:59:43;;;;;;;6.20;4.00;;;10.30;99.90;;;;;;4161565;28;20033;-81
2020/12/20 07:01:44;;;;;;;7.05;3.95;;;10.30;99.90;;;;;;4156205;28;20092;-81
2020/12/20 07:03:44;;;;;;;5.88;3.95;;;10.30;99.90;;;;;;4147248;28;20046;-81
2020/12/20 07:05:45;;;;;;;7.28;4.20;;;10.30;99.90;;;;;;4162627;28;20068;-81
2020/12/20 07:08:05;;;;;;;6.20;3.80;;;10.30;99.90;;;;;;4147243;28;20037;-81
2020/12/20 07:10:05;;;;;;;7.40;4.22;;;10.30;99.90;;;;;;4160381;28;20033;-81
2020/12/20 07:12:06;;;;;;;5.43;4.15;;;10.30;99.90;;;;;;4138699;28;20188;-81
2020/12/20 07:14:21;;;;;;;8.75;4.55;;;10.30;99.90;;;;;;4161728;28;20035;-81
2020/12/20 07:16:41;;;;;;;8.15;4.10;;;10.30;99.90;;;;;;4161918;28;20120;-81
2020/12/20 07:18:58;;;;;;;6.93;4.70;;;10.20;99.90;;;;;;4146274;28;20113;-81
2020/12/20 07:20:58;;;;;;;8.88;4.50;;;10.20;99.90;;;;;;4150817;28;20614;-81
2020/12/20 07:22:59;;;;;;;7.45;4.35;;;10.20;99.90;;;;;;4160299;28;20041;-81
2020/12/20 07:25:00;;;;;;;7.53;4.28;;;10.20;99.90;;;;;;4158666;28;20021;-81
2020/12/20 07:27:03;;;;;;;7.03;4.55;;;10.10;99.90;;;;;;4146860;28;20497;-81
2020/12/20 07:29:09;;;;;;;;;;;10.20;99.90;;;;;;4157821;28;20033;-81
2020/12/20 07:31:17;;;;;;;6.35;4.20;;;10.20;99.90;;;;;;4159639;28;19919;-81
2020/12/20 07:33:20;;;;;;;8.25;4.60;;;10.20;99.90;;;;;;4163969;28;20052;-82
2020/12/20 07:35:20;;;;;;;6.00;4.45;;;10.20;99.90;;;;;;4165449;28;20086;-81
2020/12/20 07:37:31;;;;;;;7.10;4.63;;;10.10;99.90;;;;;;4165944;28;20527;-81
2020/12/20 07:39:31;;;;;;;6.57;3.92;;;10.10;99.90;;;;;;4161960;28;20080;-81
2020/12/20 07:41:32;;;;;;;9.70;4.63;;;10.10;99.90;;;;;;4165534;28;20018;-81
2020/12/20 07:43:33;;;;;;;9.00;4.45;;;10.10;99.90;;;;;;4160383;28;20116;-82
2020/12/20 07:45:33;;;;;;;6.13;4.13;;;10.10;99.90;;;;;;4162073;28;20025;-81
2020/12/20 07:47:34;;;;;;;8.18;4.22;;;10.10;99.90;;;;;;4160848;28;20034;-81
2020/12/20 07:49:35;;;;;;;7.53;4.20;;;10.10;99.90;;;;;;4146104;28;20036;-81
2020/12/20 07:51:37;;;;;;;7.38;4.55;;;10.10;99.90;;;;;;4183007;28;20033;-81
2020/12/20 07:53:44;;;;;;;9.80;4.88;;;10.10;99.90;;;;;;4147765;28;20183;-81
2020/12/20 07:55:48;;;;;;;6.07;3.88;;;10.10;99.90;;;;;;4163041;28;20040;-81
2020/12/20 07:57:49;;;;;;;8.07;4.00;;;10.10;99.90;;;;;;4171384;28;20048;-81
2020/12/20 08:00:01;;;;;;;8.88;4.40;;;10.00;99.90;;;;;;4140510;28;21388;-80
2020/12/20 08:02:01;;;;;;;7.13;3.90;;;10.10;99.90;;;;;;4164854;28;20025;-80
2020/12/20 08:04:06;;;;;;;6.97;4.38;;;10.10;99.90;;;;;;4164574;28;20041;-82
2020/12/20 08:06:14;;;;;;;7.78;4.78;;;10.10;99.90;;;;;;4147060;28;20037;-80
2020/12/20 08:08:21;;;;;;;6.97;3.97;;;10.10;99.90;;;;;;4159047;28;20371;-80
2020/12/20 08:10:23;;;;;;;7.75;4.65;;;10.10;99.90;;;;;;4158155;28;20041;-80
2020/12/20 08:12:25;;;;;;;9.73;4.50;;;10.10;99.90;;;;;;4142782;28;20484;-80
2020/12/20 08:14:26;;;;;;;8.88;5.43;;;10.10;99.90;;;;;;4160089;28;20048;-80
2020/12/20 08:16:32;;;;;;;7.05;4.72;;;10.10;99.90;;;;;;4144495;28;20408;-80
2020/12/20 08:18:32;;;;;;;8.00;4.90;;;10.10;99.90;;;;;;4161066;28;20468;-80
2020/12/20 08:20:33;;;;;;;7.82;5.20;;;10.10;99.90;;;;;;4142214;28;20034;-80
2020/12/20 08:22:34;;;;;;;12.02;5.93;;;10.10;99.90;;;;;;4156602;28;20033;-80
2020/12/20 08:24:36;;;;;;;7.03;4.93;;;10.10;99.90;;;;;;4164070;28;20692;-80
2020/12/20 08:26:36;;;;;;;8.65;4.75;;;10.10;99.90;;;;;;4159360;28;20040;-80
2020/12/20 08:28:37;;;;;;;7.22;4.72;;;10.10;99.90;;;;;;4142256;28;20038;-80
2020/12/20 08:30:38;;;;;;;7.45;4.68;;;10.10;99.90;;;;;;4166346;28;20540;-80
2020/12/20 08:32:41;;;;;;;6.82;4.40;;;10.10;99.90;;;;;;4158401;28;20088;-80
2020/12/20 08:34:43;;;;;;;9.18;4.85;;;10.10;99.90;;;;;;4160305;28;20029;-80
2020/12/20 08:36:46;;;;;;;8.60;4.60;;;10.10;99.90;;;;;;4165577;28;20040;-80
2020/12/20 08:38:49;;;;;;;11.80;5.28;;;10.10;99.90;;;;;;4163760;28;20044;-81
2020/12/20 08:40:50;;;;;;;6.68;4.45;;;10.10;99.90;;;;;;4160705;28;20493;-80
2020/12/20 08:42:58;;;;;;;6.70;4.28;;;10.10;99.90;;;;;;4150315;28;20032;-80
2020/12/20 08:45:11;;;;;;;10.55;5.03;;;10.10;99.90;;;;;;4184028;28;20043;-80
2020/12/20 08:47:14;;;;;;;8.05;4.55;;;10.10;99.90;;;;;;4163262;28;20045;-80
2020/12/20 08:49:21;;;;;;;7.70;4.80;;;10.10;99.90;;;;;;4161723;28;20087;-80
2020/12/20 08:51:23;;;;;;;8.07;4.97;;;10.10;99.90;;;;;;4161521;28;20517;-80
2020/12/20 08:53:24;;;;;;;7.00;4.45;;;10.10;99.90;;;;;;4148102;28;20437;-85
2020/12/20 08:55:26;;;;;;;7.22;4.95;;;10.10;99.90;;;;;;4147066;28;20030;-83
2020/12/20 08:57:34;;;;;;;7.32;4.45;;;10.10;99.90;;;;;;4163069;28;20092;-80
2020/12/20 08:59:38;;;;;;;7.82;4.68;;;10.10;99.90;;;;;;4161625;28;20029;-80
2020/12/20 09:01:41;;;;;;;5.72;4.38;;;10.10;99.90;;;;;;4163576;28;20033;-80
2020/12/20 09:03:42;;;;;;;6.07;4.28;;;10.10;99.90;;;;;;4167200;28;20048;-79
2020/12/20 09:05:43;;;;;;;7.30;4.63;;;10.10;99.90;;;;;;4148467;28;20038;-80
2020/12/20 09:07:45;;;;;;;6.78;4.78;;;10.10;99.90;;;;;;4162955;28;20502;-80
2020/12/20 09:09:46;;;;;;;7.07;4.38;;;10.10;99.90;;;;;;4162498;28;20033;-80
2020/12/20 09:11:47;;;;;;;8.45;5.00;;;10.10;99.90;;;;;;4162913;28;20034;-80
2020/12/20 09:13:48;;;;;;;8.57;4.85;;;10.10;99.90;;;;;;4169691;28;20370;-80
2020/12/20 09:15:59;;;;;;;8.88;4.80;;;10.10;99.90;;;;;;4162992;28;20029;-80
2020/12/20 09:18:14;;;;;;;7.10;4.07;;;10.10;99.90;;;;;;4162681;28;20125;-80
2020/12/20 09:20:21;;;;;;;7.03;4.25;;;10.20;99.90;;;;;;4165319;28;20094;-80
2020/12/20 09:22:21;;;;;;;9.65;4.65;;;10.20;99.90;;;;;;4162919;28;20029;-80
2020/12/20 09:24:45;;;;;;;7.28;4.55;;;10.20;99.90;;;;;;4163280;28;20071;-81
2020/12/20 09:26:57;;;;;;;8.52;4.60;;;10.30;99.90;;;;;;4162852;28;20025;-80
2020/12/20 09:29:05;;;;;;;8.25;4.45;;;10.30;99.90;;;;;;4161827;28;20425;-80
2020/12/20 09:31:16;;;;;;;10.60;4.78;;;10.30;99.90;;;;;;4155615;28;20033;-81
2020/12/20 09:33:16;;;;;;;11.07;4.45;;;10.40;99.90;;;;;;4162876;28;20036;-80
2020/12/20 09:35:25;;;;;;;8.45;4.47;;;10.40;99.90;;;;;;4150908;28;20073;-80
2020/12/20 09:37:26;;;;;;;9.30;5.07;;;10.40;99.90;;;;;;4161688;28;20497;-80
2020/12/20 09:39:28;;;;;;;9.07;4.40;;;10.40;99.90;;;;;;4163498;28;20036;-80
2020/12/20 09:41:31;;;;;;;11.75;5.30;;;10.40;99.90;;;;;;4146029;28;20034;-80
2020/12/20 09:43:40;;;;;;;9.55;3.97;;;10.40;99.90;;;;;;4145643;28;20034;-80
2020/12/20 09:45:40;;;;;;;7.35;4.00;;;10.40;99.90;;;;;;4162364;28;20028;-81
2020/12/20 09:47:43;;;;;;;6.25;3.60;;;10.50;99.90;;;;;;4157640;28;20147;-82
2020/12/20 09:49:44;;;;;;;10.00;4.68;;;10.50;99.90;;;;;;4163097;28;20040;-82
2020/12/20 09:51:45;;;;;;;9.85;4.00;;;10.50;99.90;;;;;;4145975;28;20683;-79
2020/12/20 09:53:47;;;;;;;9.23;4.10;;;10.50;99.90;;;;;;4175178;28;20025;-79
2020/12/20 09:55:54;;;;;;;8.00;3.70;;;10.50;99.90;;;;;;4165701;28;20056;-82
2020/12/20 09:57:54;;;;;;;6.75;3.60;;;10.50;99.90;;;;;;4144174;28;20269;-82
2020/12/20 09:59:57;;;;;;;8.25;3.60;;;10.60;99.90;;;;;;4162929;28;20029;-82
2020/12/20 10:01:59;;;;;;;6.00;3.17;;;10.60;99.90;;;;;;4143294;28;20036;-82
2020/12/20 10:04:05;;;;;;;7.20;3.70;;;10.60;99.90;;;;;;4160184;28;20723;-82
2020/12/20 10:06:15;;;;;;;7.35;4.13;;;10.60;99.90;;;;;;4162177;28;20042;-82
2020/12/20 10:08:27;;;;;;;5.68;3.50;;;10.60;99.90;;;;;;4161317;28;20029;-82
2020/12/20 10:10:30;;;;;;;6.93;3.15;;;10.60;99.90;;;;;;4162225;28;20672;-79
2020/12/20 10:12:32;;;;;;;7.45;3.90;;;10.60;99.90;;;;;;4151867;28;20509;-79
2020/12/20 10:14:33;;;;;;;8.93;3.63;;;10.60;99.90;;;;;;4165418;28;20104;-78
2020/12/20 10:16:34;;;;;;;7.47;3.40;;;10.70;99.90;;;;;;4149758;28;20118;-78
2020/12/20 10:18:35;;;;;;;7.68;3.65;;;10.70;99.90;;;;;;4156363;28;20628;-78
2020/12/20 10:20:35;;;;;;;6.53;3.60;;;10.70;99.90;;;;;;4163778;28;20032;-81
2020/12/20 10:22:36;;;;;;;8.20;3.58;;;10.70;99.90;;;;;;4164544;28;20108;-78
2020/12/20 10:24:39;;;;;;;8.13;3.25;;;10.70;99.90;;;;;;4147474;28;20026;-78
2020/12/20 10:26:43;;;;;;;6.50;3.60;;;10.70;99.90;;;;;;4147173;28;24311;-78
2020/12/20 10:28:44;;;;;;;8.63;3.47;;;10.70;99.90;;;;;;4151709;28;20038;-81
2020/12/20 10:30:45;;;;;;;4.93;2.92;;;10.80;99.90;;;;;;4161659;28;20048;-79
2020/12/20 10:32:47;;;;;;;7.18;2.90;;;10.80;99.90;;;;;;4177088;28;20114;-78
2020/12/20 10:34:49;;;;;;;11.68;3.83;;;10.70;99.90;;;;;;4155293;28;20033;-78
2020/12/20 10:36:51;;;;;;;7.70;3.78;;;10.80;99.90;;;;;;4160898;28;20064;-78
2020/12/20 10:39:03;;;;;;;;;;;10.80;99.90;;;;;;4182794;28;20542;-78
2020/12/20 10:41:03;;;;;;;8.00;3.25;;;10.80;99.90;;;;;;4165779;28;19909;-78